sensor_id;sensor_type;location;lat;lon;timestamp;pressure;altitude;pressure_sealevel;temperature;humidity
32733;BME280;11867;51.198;11.966;2023-07-28T00:00:36;99385.69;;;19.33;100.00
32733;BME280;11867;51.198;11.966;2023-07-28T00:01:59;99377.38;;;19.53;100.00
32733;BME280;11867;51.198;11.966;2023-07-28T00:03:21;99384.97;;;19.75;100.00
32733;BME280;11867;51.198;11.966;2023-07-28T00:04:44;99384.44;;;19.89;100.00
32733;BME280;11867;51.198;11.966;2023-07-28T00:06:06;99378.84;;;19.86;100.00
32733;BME280;11867;51.198;11.966;2023-07-28T00:07:30;99375.22;;;19.82;100.00
32733;BME280;11867;51.198;11.966;2023-07-28T00:08:52;99372.25;;;19.71;100.00
32733;BME280;11867;51.198;11.966;2023-07-28T00:10:15;99384.72;;;19.84;100.00
32733;BME280;11867;51.198;11.966;2023-07-28T00:11:38;99379.75;;;19.70;100.00
32733;BME280;11867;51.198;11.966;2023-07-28T00:13:01;99373.56;;;19.77;100.00
32733;BME280;11867;51.198;11.966;2023-07-28T00:14:25;99365.44;;;19.88;100.00
32733;BME280;11867;51.198;11.966;2023-07-28T00:15:47;99367.66;;;19.79;100.00
32733;BME280;11867;51.198;11.966;2023-07-28T00:17:10;99369.47;;;19.71;100.00
32733;BME280;11867;51.198;11.966;2023-07-28T00:18:32;99363.78;;;19.44;100.00
32733;BME280;11867;51.198;11.966;2023-07-28T00:19:56;99361.09;;;19.28;100.00
32733;BME280;11867;51.198;11.966;2023-07-28T00:21:22;99360.09;;;19.56;100.00
32733;BME280;11867;51.198;11.966;2023-07-28T00:22:45;99362.78;;;19.52;100.00
32733;BME280;11867;51.198;11.966;2023-07-28T00:24:07;99360.53;;;19.58;100.00
32733;BME280;11867;51.198;11.966;2023-07-28T00:25:30;99355.34;;;19.56;100.00
32733;BME280;11867;51.198;11.966;2023-07-28T00:26:54;99354.63;;;19.40;100.00
32733;BME280;11867;51.198;11.966;2023-07-28T00:28:17;99360.69;;;19.46;100.00
32733;BME280;11867;51.198;11.966;2023-07-28T00:29:39;99361.25;;;19.55;100.00
32733;BME280;11867;51.198;11.966;2023-07-28T00:31:02;99366.28;;;19.49;100.00
32733;BME280;11867;51.198;11.966;2023-07-28T00:32:24;99363.00;;;19.44;100.00
32733;BME280;11867;51.198;11.966;2023-07-28T00:33:47;99361.47;;;19.46;100.00
32733;BME280;11867;51.198;11.966;2023-07-28T00:35:09;99360.47;;;19.35;100.00
32733;BME280;11867;51.198;11.966;2023-07-28T00:36:33;99355.84;;;19.43;100.00
32733;BME280;11867;51.198;11.966;2023-07-28T00:37:56;99359.84;;;19.65;100.00
32733;BME280;11867;51.198;11.966;2023-07-28T00:39:19;99358.75;;;19.30;100.00
32733;BME280;11867;51.198;11.966;2023-07-28T00:40:41;99355.81;;;19.39;100.00
32733;BME280;11867;51.198;11.966;2023-07-28T00:42:06;99351.72;;;19.33;100.00
32733;BME280;11867;51.198;11.966;2023-07-28T00:43:29;99361.69;;;19.57;100.00
32733;BME280;11867;51.198;11.966;2023-07-28T00:44:52;99359.63;;;19.34;100.00
32733;BME280;11867;51.198;11.966;2023-07-28T00:46:15;99352.47;;;19.49;100.00
32733;BME280;11867;51.198;11.966;2023-07-28T00:47:38;99355.66;;;19.32;100.00
32733;BME280;11867;51.198;11.966;2023-07-28T00:49:01;99351.16;;;19.43;100.00
32733;BME280;11867;51.198;11.966;2023-07-28T00:50:26;99356.09;;;19.53;100.00
32733;BME280;11867;51.198;11.966;2023-07-28T00:51:49;99367.59;;;19.55;100.00
32733;BME280;11867;51.198;11.966;2023-07-28T00:53:13;99356.22;;;19.61;100.00
32733;BME280;11867;51.198;11.966;2023-07-28T00:54:36;99362.50;;;19.58;100.00
32733;BME280;11867;51.198;11.966;2023-07-28T00:55:59;99361.03;;;19.64;100.00
32733;BME280;11867;51.198;11.966;2023-07-28T00:57:24;99365.75;;;19.63;100.00
32733;BME280;11867;51.198;11.966;2023-07-28T00:58:47;99366.34;;;19.33;100.00
32733;BME280;11867;51.198;11.966;2023-07-28T01:00:10;99363.22;;;19.35;100.00
32733;BME280;11867;51.198;11.966;2023-07-28T01:01:33;99364.97;;;19.24;100.00
32733;BME280;11867;51.198;11.966;2023-07-28T01:02:56;99354.19;;;19.38;100.00
32733;BME280;11867;51.198;11.966;2023-07-28T01:04:19;99364.16;;;19.62;100.00
32733;BME280;11867;51.198;11.966;2023-07-28T01:05:49;99363.94;;;19.71;100.00
32733;BME280;11867;51.198;11.966;2023-07-28T01:07:19;99354.28;;;19.81;100.00
32733;BME280;11867;51.198;11.966;2023-07-28T01:08:46;99355.50;;;19.83;100.00
32733;BME280;11867;51.198;11.966;2023-07-28T01:10:16;99356.44;;;19.52;100.00
32733;BME280;11867;51.198;11.966;2023-07-28T01:11:52;99359.44;;;19.43;100.00
32733;BME280;11867;51.198;11.966;2023-07-28T01:13:17;99353.69;;;19.52;100.00
32733;BME280;11867;51.198;11.966;2023-07-28T01:14:39;99354.19;;;19.38;100.00
32733;BME280;11867;51.198;11.966;2023-07-28T01:16:02;99347.13;;;19.41;100.00
32733;BME280;11867;51.198;11.966;2023-07-28T01:17:24;99356.66;;;19.63;100.00
32733;BME280;11867;51.198;11.966;2023-07-28T01:18:48;99342.88;;;19.86;100.00
32733;BME280;11867;51.198;11.966;2023-07-28T01:20:11;99342.13;;;19.27;100.00
32733;BME280;11867;51.198;11.966;2023-07-28T01:21:34;99344.50;;;19.28;100.00
32733;BME280;11867;51.198;11.966;2023-07-28T01:23:07;99335.00;;;19.26;100.00
32733;BME280;11867;51.198;11.966;2023-07-28T01:24:37;99343.50;;;18.98;100.00
32733;BME280;11867;51.198;11.966;2023-07-28T01:26:06;99340.28;;;19.34;100.00
32733;BME280;11867;51.198;11.966;2023-07-28T01:27:31;99333.25;;;19.37;100.00
32733;BME280;11867;51.198;11.966;2023-07-28T01:28:55;99338.75;;;19.56;100.00
32733;BME280;11867;51.198;11.966;2023-07-28T01:30:18;99347.66;;;19.46;100.00
32733;BME280;11867;51.198;11.966;2023-07-28T01:31:43;99332.53;;;19.40;100.00
32733;BME280;11867;51.198;11.966;2023-07-28T01:33:08;99334.56;;;19.43;100.00
32733;BME280;11867;51.198;11.966;2023-07-28T01:34:30;99337.78;;;19.45;100.00
32733;BME280;11867;51.198;11.966;2023-07-28T01:35:54;99333.81;;;19.46;100.00
32733;BME280;11867;51.198;11.966;2023-07-28T01:37:16;99336.06;;;19.41;100.00
32733;BME280;11867;51.198;11.966;2023-07-28T01:38:40;99337.53;;;19.54;100.00
32733;BME280;11867;51.198;11.966;2023-07-28T01:40:02;99341.97;;;19.59;100.00
32733;BME280;11867;51.198;11.966;2023-07-28T01:41:26;99342.00;;;19.39;100.00
32733;BME280;11867;51.198;11.966;2023-07-28T01:42:49;99335.72;;;19.42;100.00
32733;BME280;11867;51.198;11.966;2023-07-28T01:44:12;99345.75;;;19.11;100.00
32733;BME280;11867;51.198;11.966;2023-07-28T01:45:35;99347.78;;;19.34;100.00
32733;BME280;11867;51.198;11.966;2023-07-28T01:46:58;99348.44;;;19.27;100.00
32733;BME280;11867;51.198;11.966;2023-07-28T01:48:21;99343.50;;;19.17;100.00
32733;BME280;11867;51.198;11.966;2023-07-28T01:49:43;99342.25;;;18.95;100.00
32733;BME280;11867;51.198;11.966;2023-07-28T01:51:06;99347.38;;;19.12;100.00
32733;BME280;11867;51.198;11.966;2023-07-28T01:52:28;99344.66;;;19.16;100.00
32733;BME280;11867;51.198;11.966;2023-07-28T01:53:51;99353.84;;;18.85;100.00
32733;BME280;11867;51.198;11.966;2023-07-28T01:55:13;99341.66;;;18.86;100.00
32733;BME280;11867;51.198;11.966;2023-07-28T01:56:36;99352.38;;;19.07;100.00
32733;BME280;11867;51.198;11.966;2023-07-28T01:58:01;99353.16;;;18.88;100.00
32733;BME280;11867;51.198;11.966;2023-07-28T01:59:23;99345.03;;;19.14;100.00
32733;BME280;11867;51.198;11.966;2023-07-28T02:00:47;99343.06;;;19.34;100.00
32733;BME280;11867;51.198;11.966;2023-07-28T02:02:09;99339.81;;;19.29;100.00
32733;BME280;11867;51.198;11.966;2023-07-28T02:03:32;99348.16;;;19.32;100.00
32733;BME280;11867;51.198;11.966;2023-07-28T02:04:54;99337.31;;;19.24;100.00
32733;BME280;11867;51.198;11.966;2023-07-28T02:06:18;99336.22;;;19.48;100.00
32733;BME280;11867;51.198;11.966;2023-07-28T02:07:44;99348.09;;;19.48;100.00
32733;BME280;11867;51.198;11.966;2023-07-28T02:09:06;99339.28;;;19.43;100.00
32733;BME280;11867;51.198;11.966;2023-07-28T02:10:29;99348.00;;;19.45;100.00
32733;BME280;11867;51.198;11.966;2023-07-28T02:11:52;99349.09;;;19.60;100.00
32733;BME280;11867;51.198;11.966;2023-07-28T02:13:16;99348.00;;;19.64;100.00
32733;BME280;11867;51.198;11.966;2023-07-28T02:14:38;99340.00;;;19.59;100.00
32733;BME280;11867;51.198;11.966;2023-07-28T02:16:01;99339.94;;;19.75;100.00
32733;BME280;11867;51.198;11.966;2023-07-28T02:17:23;99345.66;;;19.86;100.00
32733;BME280;11867;51.198;11.966;2023-07-28T02:18:46;99346.25;;;19.56;100.00
32733;BME280;11867;51.198;11.966;2023-07-28T02:20:09;99347.22;;;19.44;100.00
32733;BME280;11867;51.198;11.966;2023-07-28T02:21:34;99351.28;;;19.50;100.00
32733;BME280;11867;51.198;11.966;2023-07-28T02:22:56;99347.94;;;19.61;100.00
32733;BME280;11867;51.198;11.966;2023-07-28T02:24:19;99354.56;;;19.17;100.00
32733;BME280;11867;51.198;11.966;2023-07-28T02:25:41;99357.97;;;19.30;100.00
32733;BME280;11867;51.198;11.966;2023-07-28T02:27:05;99362.25;;;19.08;100.00
32733;BME280;11867;51.198;11.966;2023-07-28T02:28:28;99352.06;;;19.12;100.00
32733;BME280;11867;51.198;11.966;2023-07-28T02:29:51;99349.09;;;19.01;100.00
32733;BME280;11867;51.198;11.966;2023-07-28T02:31:14;99357.59;;;19.12;100.00
32733;BME280;11867;51.198;11.966;2023-07-28T02:32:37;99360.00;;;19.13;100.00
32733;BME280;11867;51.198;11.966;2023-07-28T02:34:00;99355.78;;;19.00;100.00
32733;BME280;11867;51.198;11.966;2023-07-28T02:35:23;99362.56;;;18.87;100.00
32733;BME280;11867;51.198;11.966;2023-07-28T02:36:45;99355.84;;;19.04;100.00
32733;BME280;11867;51.198;11.966;2023-07-28T02:38:08;99355.91;;;18.88;100.00
32733;BME280;11867;51.198;11.966;2023-07-28T02:39:30;99356.34;;;18.90;100.00
32733;BME280;11867;51.198;11.966;2023-07-28T02:40:53;99353.28;;;18.95;100.00
32733;BME280;11867;51.198;11.966;2023-07-28T02:42:15;99359.09;;;18.90;100.00
32733;BME280;11867;51.198;11.966;2023-07-28T02:43:40;99361.44;;;18.88;100.00
32733;BME280;11867;51.198;11.966;2023-07-28T02:45:04;99351.63;;;18.90;100.00
32733;BME280;11867;51.198;11.966;2023-07-28T02:46:26;99349.47;;;19.00;100.00
32733;BME280;11867;51.198;11.966;2023-07-28T02:47:50;99356.88;;;18.95;100.00
32733;BME280;11867;51.198;11.966;2023-07-28T02:49:12;99345.53;;;19.01;100.00
32733;BME280;11867;51.198;11.966;2023-07-28T02:50:35;99360.25;;;18.89;100.00
32733;BME280;11867;51.198;11.966;2023-07-28T02:51:57;99356.16;;;18.83;100.00
32733;BME280;11867;51.198;11.966;2023-07-28T02:53:20;99352.97;;;18.81;100.00
32733;BME280;11867;51.198;11.966;2023-07-28T02:54:43;99361.78;;;18.86;100.00
32733;BME280;11867;51.198;11.966;2023-07-28T02:56:06;99353.72;;;18.97;100.00
32733;BME280;11867;51.198;11.966;2023-07-28T02:57:28;99360.09;;;18.82;100.00
32733;BME280;11867;51.198;11.966;2023-07-28T02:58:53;99358.50;;;18.81;100.00
32733;BME280;11867;51.198;11.966;2023-07-28T03:00:15;99351.69;;;18.94;100.00
32733;BME280;11867;51.198;11.966;2023-07-28T03:01:38;99354.72;;;18.89;100.00
32733;BME280;11867;51.198;11.966;2023-07-28T03:03:00;99359.88;;;19.06;100.00
32733;BME280;11867;51.198;11.966;2023-07-28T03:04:26;99369.53;;;18.81;100.00
32733;BME280;11867;51.198;11.966;2023-07-28T03:05:51;99367.41;;;18.90;100.00
32733;BME280;11867;51.198;11.966;2023-07-28T03:07:15;99377.66;;;18.89;100.00
32733;BME280;11867;51.198;11.966;2023-07-28T03:08:38;99376.50;;;19.10;100.00
32733;BME280;11867;51.198;11.966;2023-07-28T03:23:39;99381.66;;;19.11;100.00
32733;BME280;11867;51.198;11.966;2023-07-28T03:25:03;99384.72;;;19.06;100.00
32733;BME280;11867;51.198;11.966;2023-07-28T03:26:25;99386.41;;;19.30;100.00
32733;BME280;11867;51.198;11.966;2023-07-28T03:27:48;99390.47;;;18.98;100.00
32733;BME280;11867;51.198;11.966;2023-07-28T03:29:11;99393.28;;;19.01;100.00
32733;BME280;11867;51.198;11.966;2023-07-28T03:30:33;99377.38;;;18.79;100.00
32733;BME280;11867;51.198;11.966;2023-07-28T03:31:57;99387.25;;;18.95;100.00
32733;BME280;11867;51.198;11.966;2023-07-28T03:33:19;99384.59;;;19.19;100.00
32733;BME280;11867;51.198;11.966;2023-07-28T03:34:42;99395.25;;;19.20;100.00
32733;BME280;11867;51.198;11.966;2023-07-28T03:36:04;99389.25;;;19.14;100.00
32733;BME280;11867;51.198;11.966;2023-07-28T03:37:27;99387.50;;;19.06;100.00
32733;BME280;11867;51.198;11.966;2023-07-28T03:38:52;99396.97;;;18.89;100.00
32733;BME280;11867;51.198;11.966;2023-07-28T03:40:14;99400.28;;;18.79;100.00
32733;BME280;11867;51.198;11.966;2023-07-28T03:41:38;99390.38;;;18.94;100.00
32733;BME280;11867;51.198;11.966;2023-07-28T03:43:01;99395.66;;;19.19;100.00
32733;BME280;11867;51.198;11.966;2023-07-28T03:44:24;99394.03;;;19.18;100.00
32733;BME280;11867;51.198;11.966;2023-07-28T03:45:46;99396.28;;;19.12;100.00
32733;BME280;11867;51.198;11.966;2023-07-28T03:47:09;99395.72;;;18.87;100.00
32733;BME280;11867;51.198;11.966;2023-07-28T03:48:32;99399.91;;;18.81;100.00
32733;BME280;11867;51.198;11.966;2023-07-28T03:49:55;99392.16;;;18.70;100.00
32733;BME280;11867;51.198;11.966;2023-07-28T03:51:18;99388.69;;;18.73;100.00
32733;BME280;11867;51.198;11.966;2023-07-28T03:52:43;99384.75;;;18.90;100.00
32733;BME280;11867;51.198;11.966;2023-07-28T03:54:07;99389.69;;;18.81;100.00
32733;BME280;11867;51.198;11.966;2023-07-28T03:55:30;99388.41;;;18.94;100.00
32733;BME280;11867;51.198;11.966;2023-07-28T03:56:53;99387.44;;;18.87;100.00
32733;BME280;11867;51.198;11.966;2023-07-28T03:58:16;99396.38;;;18.80;100.00
32733;BME280;11867;51.198;11.966;2023-07-28T03:59:38;99387.28;;;18.80;100.00
32733;BME280;11867;51.198;11.966;2023-07-28T04:01:01;99390.81;;;18.64;100.00
32733;BME280;11867;51.198;11.966;2023-07-28T04:02:23;99397.69;;;18.39;100.00
32733;BME280;11867;51.198;11.966;2023-07-28T04:03:46;99392.34;;;18.46;100.00
32733;BME280;11867;51.198;11.966;2023-07-28T04:05:09;99407.94;;;18.54;100.00
32733;BME280;11867;51.198;11.966;2023-07-28T04:06:42;99402.16;;;18.75;100.00
32733;BME280;11867;51.198;11.966;2023-07-28T04:08:05;99402.94;;;18.60;100.00
32733;BME280;11867;51.198;11.966;2023-07-28T04:09:29;99407.81;;;18.66;100.00
32733;BME280;11867;51.198;11.966;2023-07-28T04:10:51;99400.03;;;18.52;100.00
32733;BME280;11867;51.198;11.966;2023-07-28T04:12:14;99396.97;;;18.42;100.00
32733;BME280;11867;51.198;11.966;2023-07-28T04:13:37;99401.78;;;18.29;100.00
32733;BME280;11867;51.198;11.966;2023-07-28T04:15:00;99397.25;;;18.21;100.00
32733;BME280;11867;51.198;11.966;2023-07-28T04:16:22;99396.81;;;18.34;100.00
32733;BME280;11867;51.198;11.966;2023-07-28T04:17:45;99400.19;;;18.44;100.00
32733;BME280;11867;51.198;11.966;2023-07-28T04:19:07;99405.16;;;18.54;100.00
32733;BME280;11867;51.198;11.966;2023-07-28T04:20:30;99396.91;;;18.38;100.00
32733;BME280;11867;51.198;11.966;2023-07-28T04:21:53;99402.88;;;18.40;100.00
32733;BME280;11867;51.198;11.966;2023-07-28T04:23:16;99402.16;;;18.43;100.00
32733;BME280;11867;51.198;11.966;2023-07-28T04:24:39;99410.63;;;18.34;100.00
32733;BME280;11867;51.198;11.966;2023-07-28T04:26:02;99404.13;;;18.43;100.00
32733;BME280;11867;51.198;11.966;2023-07-28T04:27:24;99412.56;;;18.18;100.00
32733;BME280;11867;51.198;11.966;2023-07-28T04:28:49;99408.72;;;18.23;100.00
32733;BME280;11867;51.198;11.966;2023-07-28T04:30:11;99403.59;;;18.21;100.00
32733;BME280;11867;51.198;11.966;2023-07-28T04:31:34;99398.84;;;18.22;100.00
32733;BME280;11867;51.198;11.966;2023-07-28T04:32:57;99401.78;;;18.13;100.00
32733;BME280;11867;51.198;11.966;2023-07-28T04:34:20;99407.91;;;18.06;100.00
32733;BME280;11867;51.198;11.966;2023-07-28T04:35:42;99411.72;;;18.02;100.00
32733;BME280;11867;51.198;11.966;2023-07-28T04:37:05;99399.56;;;18.03;100.00
32733;BME280;11867;51.198;11.966;2023-07-28T04:38:27;99405.88;;;18.03;100.00
32733;BME280;11867;51.198;11.966;2023-07-28T04:39:52;99400.19;;;18.12;100.00
32733;BME280;11867;51.198;11.966;2023-07-28T04:41:15;99410.88;;;18.13;100.00
32733;BME280;11867;51.198;11.966;2023-07-28T04:42:38;99405.44;;;18.17;100.00
32733;BME280;11867;51.198;11.966;2023-07-28T04:44:00;99403.72;;;18.12;100.00
32733;BME280;11867;51.198;11.966;2023-07-28T04:45:24;99404.53;;;17.97;100.00
32733;BME280;11867;51.198;11.966;2023-07-28T04:46:46;99401.50;;;18.02;100.00
32733;BME280;11867;51.198;11.966;2023-07-28T04:48:09;99397.25;;;18.05;100.00
32733;BME280;11867;51.198;11.966;2023-07-28T04:49:31;99402.03;;;18.08;100.00
32733;BME280;11867;51.198;11.966;2023-07-28T04:50:55;99402.69;;;18.17;100.00
32733;BME280;11867;51.198;11.966;2023-07-28T04:52:17;99400.47;;;18.39;100.00
32733;BME280;11867;51.198;11.966;2023-07-28T04:53:40;99407.66;;;18.59;100.00
32733;BME280;11867;51.198;11.966;2023-07-28T04:55:05;99407.84;;;18.34;100.00
32733;BME280;11867;51.198;11.966;2023-07-28T04:56:28;99406.16;;;18.30;100.00
32733;BME280;11867;51.198;11.966;2023-07-28T04:57:50;99416.75;;;18.44;100.00
32733;BME280;11867;51.198;11.966;2023-07-28T04:59:13;99424.78;;;18.49;100.00
32733;BME280;11867;51.198;11.966;2023-07-28T05:00:36;99423.34;;;18.23;100.00
32733;BME280;11867;51.198;11.966;2023-07-28T05:01:59;99413.53;;;18.42;100.00
32733;BME280;11867;51.198;11.966;2023-07-28T05:03:21;99418.34;;;18.45;100.00
32733;BME280;11867;51.198;11.966;2023-07-28T05:04:44;99421.91;;;18.61;100.00
32733;BME280;11867;51.198;11.966;2023-07-28T05:06:06;99421.47;;;18.75;100.00
32733;BME280;11867;51.198;11.966;2023-07-28T05:07:30;99425.47;;;18.78;100.00
32733;BME280;11867;51.198;11.966;2023-07-28T05:08:52;99419.53;;;18.91;100.00
32733;BME280;11867;51.198;11.966;2023-07-28T05:10:19;99422.13;;;19.04;100.00
32733;BME280;11867;51.198;11.966;2023-07-28T05:11:41;99419.69;;;18.67;100.00
32733;BME280;11867;51.198;11.966;2023-07-28T05:13:07;99423.78;;;18.73;100.00
32733;BME280;11867;51.198;11.966;2023-07-28T05:14:29;99426.00;;;18.67;100.00
32733;BME280;11867;51.198;11.966;2023-07-28T05:15:52;99425.41;;;18.90;100.00
32733;BME280;11867;51.198;11.966;2023-07-28T05:17:14;99424.63;;;19.09;100.00
32733;BME280;11867;51.198;11.966;2023-07-28T05:18:40;99427.59;;;19.00;100.00
32733;BME280;11867;51.198;11.966;2023-07-28T05:20:05;99424.88;;;19.20;100.00
32733;BME280;11867;51.198;11.966;2023-07-28T05:21:28;99429.16;;;19.17;100.00
32733;BME280;11867;51.198;11.966;2023-07-28T05:22:54;99425.88;;;19.11;100.00
32733;BME280;11867;51.198;11.966;2023-07-28T05:24:17;99422.16;;;19.39;100.00
32733;BME280;11867;51.198;11.966;2023-07-28T05:25:41;99429.47;;;19.31;100.00
32733;BME280;11867;51.198;11.966;2023-07-28T05:27:04;99427.22;;;19.56;100.00
32733;BME280;11867;51.198;11.966;2023-07-28T05:28:27;99443.38;;;19.35;100.00
32733;BME280;11867;51.198;11.966;2023-07-28T05:29:50;99441.78;;;18.99;100.00
32733;BME280;11867;51.198;11.966;2023-07-28T05:31:12;99437.88;;;18.84;100.00
32733;BME280;11867;51.198;11.966;2023-07-28T05:32:37;99437.16;;;18.71;100.00
32733;BME280;11867;51.198;11.966;2023-07-28T05:33:59;99442.31;;;18.41;100.00
32733;BME280;11867;51.198;11.966;2023-07-28T05:35:22;99443.28;;;18.32;100.00
32733;BME280;11867;51.198;11.966;2023-07-28T05:36:44;99443.81;;;18.54;100.00
32733;BME280;11867;51.198;11.966;2023-07-28T05:38:07;99445.97;;;18.61;100.00
32733;BME280;11867;51.198;11.966;2023-07-28T05:39:30;99446.69;;;18.89;100.00
32733;BME280;11867;51.198;11.966;2023-07-28T05:40:57;99451.28;;;19.01;100.00
32733;BME280;11867;51.198;11.966;2023-07-28T05:42:19;99443.97;;;19.09;100.00
32733;BME280;11867;51.198;11.966;2023-07-28T05:43:43;99454.97;;;18.73;100.00
32733;BME280;11867;51.198;11.966;2023-07-28T05:45:06;99462.44;;;18.73;100.00
32733;BME280;11867;51.198;11.966;2023-07-28T05:46:29;99462.16;;;18.62;100.00
32733;BME280;11867;51.198;11.966;2023-07-28T05:47:51;99464.59;;;18.80;100.00
32733;BME280;11867;51.198;11.966;2023-07-28T05:49:14;99466.34;;;18.40;100.00
32733;BME280;11867;51.198;11.966;2023-07-28T05:50:37;99459.28;;;18.27;100.00
32733;BME280;11867;51.198;11.966;2023-07-28T05:52:01;99459.94;;;18.36;100.00
32733;BME280;11867;51.198;11.966;2023-07-28T05:53:23;99464.22;;;18.33;100.00
32733;BME280;11867;51.198;11.966;2023-07-28T05:54:46;99457.25;;;18.24;100.00
32733;BME280;11867;51.198;11.966;2023-07-28T05:56:09;99459.72;;;18.29;100.00
32733;BME280;11867;51.198;11.966;2023-07-28T05:57:32;99466.34;;;18.40;100.00
32733;BME280;11867;51.198;11.966;2023-07-28T05:58:55;99465.72;;;18.47;100.00
32733;BME280;11867;51.198;11.966;2023-07-28T06:00:18;99454.06;;;18.53;100.00
32733;BME280;11867;51.198;11.966;2023-07-28T06:01:41;99464.03;;;18.58;100.00
32733;BME280;11867;51.198;11.966;2023-07-28T06:03:04;99463.13;;;18.54;100.00
32733;BME280;11867;51.198;11.966;2023-07-28T06:04:26;99465.66;;;18.59;100.00
32733;BME280;11867;51.198;11.966;2023-07-28T06:05:49;99477.13;;;18.61;100.00
32733;BME280;11867;51.198;11.966;2023-07-28T06:07:12;99472.50;;;18.65;100.00
32733;BME280;11867;51.198;11.966;2023-07-28T06:08:35;99472.59;;;18.53;100.00
32733;BME280;11867;51.198;11.966;2023-07-28T06:09:57;99484.09;;;18.71;100.00
32733;BME280;11867;51.198;11.966;2023-07-28T06:11:22;99479.22;;;18.80;100.00
32733;BME280;11867;51.198;11.966;2023-07-28T06:12:44;99489.09;;;18.81;100.00
32733;BME280;11867;51.198;11.966;2023-07-28T06:14:07;99487.25;;;18.85;100.00
32733;BME280;11867;51.198;11.966;2023-07-28T06:15:31;99482.50;;;18.86;100.00
32733;BME280;11867;51.198;11.966;2023-07-28T06:16:56;99478.50;;;18.83;100.00
32733;BME280;11867;51.198;11.966;2023-07-28T06:18:18;99490.44;;;18.87;100.00
32733;BME280;11867;51.198;11.966;2023-07-28T06:19:44;99484.88;;;19.03;100.00
32733;BME280;11867;51.198;11.966;2023-07-28T06:21:06;99487.94;;;18.98;100.00
32733;BME280;11867;51.198;11.966;2023-07-28T06:22:29;99479.16;;;19.12;100.00
32733;BME280;11867;51.198;11.966;2023-07-28T06:23:51;99486.00;;;19.34;100.00
32733;BME280;11867;51.198;11.966;2023-07-28T06:25:14;99484.72;;;19.47;100.00
32733;BME280;11867;51.198;11.966;2023-07-28T06:26:37;99474.47;;;19.67;100.00
32733;BME280;11867;51.198;11.966;2023-07-28T06:28:01;99471.06;;;19.39;100.00
32733;BME280;11867;51.198;11.966;2023-07-28T06:29:23;99479.50;;;19.62;100.00
32733;BME280;11867;51.198;11.966;2023-07-28T06:30:46;99476.75;;;19.81;100.00
32733;BME280;11867;51.198;11.966;2023-07-28T06:32:09;99481.84;;;19.99;100.00
32733;BME280;11867;51.198;11.966;2023-07-28T06:33:32;99483.72;;;19.94;100.00
32733;BME280;11867;51.198;11.966;2023-07-28T06:34:54;99488.72;;;19.50;100.00
32733;BME280;11867;51.198;11.966;2023-07-28T06:36:17;99496.22;;;19.49;100.00
32733;BME280;11867;51.198;11.966;2023-07-28T06:37:39;99498.81;;;19.42;100.00
32733;BME280;11867;51.198;11.966;2023-07-28T06:39:02;99505.34;;;19.34;100.00
32733;BME280;11867;51.198;11.966;2023-07-28T06:40:25;99491.19;;;19.20;100.00
32733;BME280;11867;51.198;11.966;2023-07-28T06:41:49;99496.16;;;19.30;100.00
32733;BME280;11867;51.198;11.966;2023-07-28T06:43:12;99503.81;;;19.36;100.00
32733;BME280;11867;51.198;11.966;2023-07-28T06:44:35;99497.88;;;19.54;100.00
32733;BME280;11867;51.198;11.966;2023-07-28T06:45:57;99500.75;;;19.58;100.00
32733;BME280;11867;51.198;11.966;2023-07-28T06:47:20;99510.53;;;19.55;100.00
32733;BME280;11867;51.198;11.966;2023-07-28T06:48:42;99507.34;;;19.53;100.00
32733;BME280;11867;51.198;11.966;2023-07-28T06:50:06;99518.91;;;19.39;100.00
32733;BME280;11867;51.198;11.966;2023-07-28T06:51:29;99507.41;;;19.37;100.00
32733;BME280;11867;51.198;11.966;2023-07-28T06:52:55;99504.88;;;19.48;100.00
32733;BME280;11867;51.198;11.966;2023-07-28T06:54:18;99505.44;;;19.73;100.00
32733;BME280;11867;51.198;11.966;2023-07-28T06:55:43;99498.66;;;19.70;100.00
32733;BME280;11867;51.198;11.966;2023-07-28T06:57:07;99509.94;;;19.81;100.00
32733;BME280;11867;51.198;11.966;2023-07-28T06:58:30;99508.34;;;19.80;100.00
32733;BME280;11867;51.198;11.966;2023-07-28T06:59:52;99507.59;;;19.64;100.00
32733;BME280;11867;51.198;11.966;2023-07-28T07:01:15;99505.00;;;19.71;100.00
32733;BME280;11867;51.198;11.966;2023-07-28T07:02:38;99509.16;;;19.81;100.00
32733;BME280;11867;51.198;11.966;2023-07-28T07:04:01;99506.16;;;19.89;100.00
32733;BME280;11867;51.198;11.966;2023-07-28T07:05:23;99504.13;;;20.06;100.00
32733;BME280;11867;51.198;11.966;2023-07-28T07:06:47;99500.63;;;20.09;100.00
32733;BME280;11867;51.198;11.966;2023-07-28T07:08:09;99508.63;;;20.14;100.00
32733;BME280;11867;51.198;11.966;2023-07-28T07:09:32;99508.78;;;20.02;100.00
32733;BME280;11867;51.198;11.966;2023-07-28T07:10:54;99495.09;;;20.09;100.00
32733;BME280;11867;51.198;11.966;2023-07-28T07:12:19;99493.78;;;20.03;100.00
32733;BME280;11867;51.198;11.966;2023-07-28T07:13:42;99497.72;;;20.02;100.00
32733;BME280;11867;51.198;11.966;2023-07-28T07:15:06;99507.16;;;20.01;100.00
32733;BME280;11867;51.198;11.966;2023-07-28T07:16:29;99495.66;;;20.18;100.00
32733;BME280;11867;51.198;11.966;2023-07-28T07:17:52;99506.22;;;20.32;100.00
32733;BME280;11867;51.198;11.966;2023-07-28T07:19:14;99514.97;;;20.34;100.00
32733;BME280;11867;51.198;11.966;2023-07-28T07:20:38;99504.06;;;20.22;100.00
32733;BME280;11867;51.198;11.966;2023-07-28T07:22:00;99510.31;;;20.19;100.00
32733;BME280;11867;51.198;11.966;2023-07-28T07:23:23;99507.69;;;20.26;100.00